sensor_id;sensor_type;location;lat;lon;timestamp;P1;durP1;ratioP1;P2;durP2;ratioP2
22949;SDS011;11641;51.018;4.474;2022-10-17T00:02:10;11.00;;;7.43;;
22949;SDS011;11641;51.018;4.474;2022-10-17T00:04:36;10.38;;;7.63;;
22949;SDS011;11641;51.018;4.474;2022-10-17T00:07:04;11.27;;;8.98;;
22949;SDS011;11641;51.018;4.474;2022-10-17T00:09:29;11.02;;;8.65;;
22949;SDS011;11641;51.018;4.474;2022-10-17T00:11:55;11.65;;;8.80;;
22949;SDS011;11641;51.018;4.474;2022-10-17T00:14:21;13.95;;;8.57;;
22949;SDS011;11641;51.018;4.474;2022-10-17T00:16:46;13.63;;;8.55;;
22949;SDS011;11641;51.018;4.474;2022-10-17T00:19:14;12.48;;;8.57;;
22949;SDS011;11641;51.018;4.474;2022-10-17T00:21:40;13.98;;;9.00;;
22949;SDS011;11641;51.018;4.474;2022-10-17T00:24:08;14.95;;;8.75;;
22949;SDS011;11641;51.018;4.474;2022-10-17T00:26:36;10.55;;;8.73;;
22949;SDS011;11641;51.018;4.474;2022-10-17T00:29:04;12.70;;;8.65;;
22949;SDS011;11641;51.018;4.474;2022-10-17T00:31:30;14.98;;;9.15;;
22949;SDS011;11641;51.018;4.474;2022-10-17T00:33:58;14.13;;;9.10;;
22949;SDS011;11641;51.018;4.474;2022-10-17T00:36:24;13.65;;;9.13;;
22949;SDS011;11641;51.018;4.474;2022-10-17T00:38:52;10.80;;;8.40;;
22949;SDS011;11641;51.018;4.474;2022-10-17T00:41:23;14.05;;;8.20;;
22949;SDS011;11641;51.018;4.474;2022-10-17T00:46:28;17.45;;;8.25;;
22949;SDS011;11641;51.018;4.474;2022-10-17T00:48:57;14.68;;;9.07;;
22949;SDS011;11641;51.018;4.474;2022-10-17T00:51:45;13.57;;;9.18;;
22949;SDS011;11641;51.018;4.474;2022-10-17T00:54:15;12.98;;;8.45;;
22949;SDS011;11641;51.018;4.474;2022-10-17T00:56:43;14.93;;;8.05;;
22949;SDS011;11641;51.018;4.474;2022-10-17T00:59:14;11.43;;;8.00;;
22949;SDS011;11641;51.018;4.474;2022-10-17T01:01:42;16.10;;;8.75;;
22949;SDS011;11641;51.018;4.474;2022-10-17T01:04:15;14.85;;;8.05;;
22949;SDS011;11641;51.018;4.474;2022-10-17T01:06:44;9.57;;;7.80;;
22949;SDS011;11641;51.018;4.474;2022-10-17T01:09:09;13.43;;;8.40;;
22949;SDS011;11641;51.018;4.474;2022-10-17T01:14:27;12.18;;;8.10;;
22949;SDS011;11641;51.018;4.474;2022-10-17T01:33:46;12.93;;;8.15;;
22949;SDS011;11641;51.018;4.474;2022-10-17T01:36:36;10.60;;;7.72;;
22949;SDS011;11641;51.018;4.474;2022-10-17T01:39:39;11.32;;;8.10;;
22949;SDS011;11641;51.018;4.474;2022-10-17T01:42:16;12.48;;;7.65;;
22949;SDS011;11641;51.018;4.474;2022-10-17T01:45:28;15.50;;;8.27;;
22949;SDS011;11641;51.018;4.474;2022-10-17T01:48:03;12.13;;;7.80;;
22949;SDS011;11641;51.018;4.474;2022-10-17T01:50:32;11.55;;;8.13;;
22949;SDS011;11641;51.018;4.474;2022-10-17T01:53:04;15.80;;;8.48;;
22949;SDS011;11641;51.018;4.474;2022-10-17T01:55:37;14.27;;;7.85;;
22949;SDS011;11641;51.018;4.474;2022-10-17T01:58:12;13.82;;;7.57;;
22949;SDS011;11641;51.018;4.474;2022-10-17T02:00:44;11.02;;;7.90;;
22949;SDS011;11641;51.018;4.474;2022-10-17T02:03:16;8.73;;;7.35;;
22949;SDS011;11641;51.018;4.474;2022-10-17T02:05:47;11.40;;;7.43;;
22949;SDS011;11641;51.018;4.474;2022-10-17T02:08:13;14.60;;;7.90;;
22949;SDS011;11641;51.018;4.474;2022-10-17T02:16:14;11.27;;;7.97;;
22949;SDS011;11641;51.018;4.474;2022-10-17T02:24:06;12.13;;;7.50;;
22949;SDS011;11641;51.018;4.474;2022-10-17T02:29:47;13.88;;;7.72;;
22949;SDS011;11641;51.018;4.474;2022-10-17T02:32:20;13.45;;;7.38;;
22949;SDS011;11641;51.018;4.474;2022-10-17T02:34:58;11.30;;;7.50;;
22949;SDS011;11641;51.018;4.474;2022-10-17T02:37:27;18.92;;;8.05;;
22949;SDS011;11641;51.018;4.474;2022-10-17T02:39:55;11.07;;;7.70;;
22949;SDS011;11641;51.018;4.474;2022-10-17T02:42:24;12.65;;;7.97;;
22949;SDS011;11641;51.018;4.474;2022-10-17T02:44:51;14.40;;;7.85;;
22949;SDS011;11641;51.018;4.474;2022-10-17T02:50:37;15.30;;;7.55;;
22949;SDS011;11641;51.018;4.474;2022-10-17T02:53:22;10.73;;;7.00;;
22949;SDS011;11641;51.018;4.474;2022-10-17T02:55:56;16.83;;;7.88;;
22949;SDS011;11641;51.018;4.474;2022-10-17T02:58:28;11.48;;;7.47;;
22949;SDS011;11641;51.018;4.474;2022-10-17T03:00:57;11.55;;;7.63;;
22949;SDS011;11641;51.018;4.474;2022-10-17T03:03:25;11.82;;;6.97;;
22949;SDS011;11641;51.018;4.474;2022-10-17T03:05:55;9.90;;;6.45;;
22949;SDS011;11641;51.018;4.474;2022-10-17T03:08:25;12.88;;;7.32;;
22949;SDS011;11641;51.018;4.474;2022-10-17T03:10:51;14.27;;;6.85;;
22949;SDS011;11641;51.018;4.474;2022-10-17T03:13:17;10.98;;;6.50;;
22949;SDS011;11641;51.018;4.474;2022-10-17T03:15:45;13.52;;;6.32;;
22949;SDS011;11641;51.018;4.474;2022-10-17T03:18:16;10.85;;;6.38;;
22949;SDS011;11641;51.018;4.474;2022-10-17T03:20:44;9.50;;;6.63;;
22949;SDS011;11641;51.018;4.474;2022-10-17T03:23:12;10.55;;;6.30;;
22949;SDS011;11641;51.018;4.474;2022-10-17T03:25:40;10.95;;;6.15;;
22949;SDS011;11641;51.018;4.474;2022-10-17T03:28:06;15.48;;;6.43;;
22949;SDS011;11641;51.018;4.474;2022-10-17T03:30:33;12.93;;;6.50;;
22949;SDS011;11641;51.018;4.474;2022-10-17T03:33:00;15.60;;;6.80;;
22949;SDS011;11641;51.018;4.474;2022-10-17T03:35:26;12.25;;;6.20;;
22949;SDS011;11641;51.018;4.474;2022-10-17T03:37:53;10.77;;;6.57;;
22949;SDS011;11641;51.018;4.474;2022-10-17T03:40:19;10.70;;;6.20;;
22949;SDS011;11641;51.018;4.474;2022-10-17T03:42:45;12.38;;;6.80;;
22949;SDS011;11641;51.018;4.474;2022-10-17T03:45:10;8.50;;;5.60;;
22949;SDS011;11641;51.018;4.474;2022-10-17T03:47:39;13.52;;;5.82;;
22949;SDS011;11641;51.018;4.474;2022-10-17T03:50:06;8.63;;;5.53;;
22949;SDS011;11641;51.018;4.474;2022-10-17T03:52:34;10.65;;;5.72;;
22949;SDS011;11641;51.018;4.474;2022-10-17T03:55:02;9.13;;;6.40;;
22949;SDS011;11641;51.018;4.474;2022-10-17T03:57:30;10.10;;;6.05;;
22949;SDS011;11641;51.018;4.474;2022-10-17T03:59:59;12.13;;;5.93;;
22949;SDS011;11641;51.018;4.474;2022-10-17T04:02:28;9.27;;;6.00;;
22949;SDS011;11641;51.018;4.474;2022-10-17T04:04:56;8.77;;;5.70;;
22949;SDS011;11641;51.018;4.474;2022-10-17T04:07:21;11.57;;;5.43;;
22949;SDS011;11641;51.018;4.474;2022-10-17T04:09:47;11.15;;;5.28;;
22949;SDS011;11641;51.018;4.474;2022-10-17T04:12:15;11.70;;;5.45;;
22949;SDS011;11641;51.018;4.474;2022-10-17T04:14:41;10.55;;;5.90;;
22949;SDS011;11641;51.018;4.474;2022-10-17T04:17:06;11.27;;;5.90;;
22949;SDS011;11641;51.018;4.474;2022-10-17T04:19:34;8.57;;;5.60;;
22949;SDS011;11641;51.018;4.474;2022-10-17T04:22:02;11.52;;;5.68;;
22949;SDS011;11641;51.018;4.474;2022-10-17T04:24:28;12.32;;;5.47;;
22949;SDS011;11641;51.018;4.474;2022-10-17T04:26:54;10.20;;;5.40;;
22949;SDS011;11641;51.018;4.474;2022-10-17T04:29:22;10.32;;;5.47;;
22949;SDS011;11641;51.018;4.474;2022-10-17T04:31:49;12.10;;;5.03;;
22949;SDS011;11641;51.018;4.474;2022-10-17T04:34:16;9.50;;;5.05;;
22949;SDS011;11641;51.018;4.474;2022-10-17T04:36:42;8.20;;;5.63;;
22949;SDS011;11641;51.018;4.474;2022-10-17T04:39:08;8.05;;;5.13;;
22949;SDS011;11641;51.018;4.474;2022-10-17T04:41:34;10.60;;;5.47;;
22949;SDS011;11641;51.018;4.474;2022-10-17T04:44:00;12.98;;;5.53;;
22949;SDS011;11641;51.018;4.474;2022-10-17T04:46:28;9.00;;;5.18;;
22949;SDS011;11641;51.018;4.474;2022-10-17T04:48:54;11.10;;;5.65;;
22949;SDS011;11641;51.018;4.474;2022-10-17T04:51:19;13.93;;;6.47;;
22949;SDS011;11641;51.018;4.474;2022-10-17T04:53:47;9.73;;;5.68;;
22949;SDS011;11641;51.018;4.474;2022-10-17T04:56:14;10.98;;;5.82;;
22949;SDS011;11641;51.018;4.474;2022-10-17T04:58:42;12.25;;;5.72;;
22949;SDS011;11641;51.018;4.474;2022-10-17T05:01:15;14.13;;;5.90;;
22949;SDS011;11641;51.018;4.474;2022-10-17T05:03:43;10.07;;;5.75;;
22949;SDS011;11641;51.018;4.474;2022-10-17T05:06:15;10.38;;;6.15;;
22949;SDS011;11641;51.018;4.474;2022-10-17T05:08:45;15.82;;;6.45;;
22949;SDS011;11641;51.018;4.474;2022-10-17T05:11:15;13.63;;;6.20;;
22949;SDS011;11641;51.018;4.474;2022-10-17T05:13:41;9.30;;;5.75;;
22949;SDS011;11641;51.018;4.474;2022-10-17T05:16:07;9.70;;;6.20;;
22949;SDS011;11641;51.018;4.474;2022-10-17T05:18:35;9.95;;;6.40;;
22949;SDS011;11641;51.018;4.474;2022-10-17T05:21:03;13.52;;;6.43;;
22949;SDS011;11641;51.018;4.474;2022-10-17T05:23:29;9.80;;;6.55;;
22949;SDS011;11641;51.018;4.474;2022-10-17T05:25:57;12.02;;;6.28;;
22949;SDS011;11641;51.018;4.474;2022-10-17T05:28:22;16.10;;;6.72;;
22949;SDS011;11641;51.018;4.474;2022-10-17T05:30:50;10.23;;;6.07;;
22949;SDS011;11641;51.018;4.474;2022-10-17T05:33:16;10.65;;;6.03;;
22949;SDS011;11641;51.018;4.474;2022-10-17T05:35:44;11.57;;;6.00;;
22949;SDS011;11641;51.018;4.474;2022-10-17T05:38:09;11.90;;;5.88;;
22949;SDS011;11641;51.018;4.474;2022-10-17T05:40:37;10.07;;;5.93;;
22949;SDS011;11641;51.018;4.474;2022-10-17T05:43:05;11.55;;;5.60;;
22949;SDS011;11641;51.018;4.474;2022-10-17T05:45:31;14.10;;;5.95;;
22949;SDS011;11641;51.018;4.474;2022-10-17T05:47:57;8.15;;;5.35;;
22949;SDS011;11641;51.018;4.474;2022-10-17T05:50:23;11.35;;;5.53;;
22949;SDS011;11641;51.018;4.474;2022-10-17T05:52:51;8.10;;;6.05;;
22949;SDS011;11641;51.018;4.474;2022-10-17T05:55:18;10.88;;;5.20;;
22949;SDS011;11641;51.018;4.474;2022-10-17T05:57:43;11.52;;;5.38;;
22949;SDS011;11641;51.018;4.474;2022-10-17T06:00:09;11.10;;;5.78;;
22949;SDS011;11641;51.018;4.474;2022-10-17T06:02:35;12.52;;;5.97;;
22949;SDS011;11641;51.018;4.474;2022-10-17T06:05:04;12.88;;;5.72;;
22949;SDS011;11641;51.018;4.474;2022-10-17T06:07:30;9.15;;;5.18;;
22949;SDS011;11641;51.018;4.474;2022-10-17T06:09:58;9.57;;;5.25;;
22949;SDS011;11641;51.018;4.474;2022-10-17T06:12:26;11.35;;;5.10;;
22949;SDS011;11641;51.018;4.474;2022-10-17T06:14:52;18.85;;;5.85;;
22949;SDS011;11641;51.018;4.474;2022-10-17T06:17:18;9.88;;;5.22;;
22949;SDS011;11641;51.018;4.474;2022-10-17T06:19:43;9.15;;;5.88;;
22949;SDS011;11641;51.018;4.474;2022-10-17T06:22:09;11.18;;;4.65;;
22949;SDS011;11641;51.018;4.474;2022-10-17T06:24:35;11.75;;;5.13;;
22949;SDS011;11641;51.018;4.474;2022-10-17T06:27:01;8.07;;;4.85;;
22949;SDS011;11641;51.018;4.474;2022-10-17T06:29:27;11.57;;;5.25;;
22949;SDS011;11641;51.018;4.474;2022-10-17T06:31:53;9.50;;;4.80;;
22949;SDS011;11641;51.018;4.474;2022-10-17T06:34:21;8.60;;;4.55;;
22949;SDS011;11641;51.018;4.474;2022-10-17T06:36:52;11.30;;;5.47;;
22949;SDS011;11641;51.018;4.474;2022-10-17T06:39:17;7.80;;;4.78;;
22949;SDS011;11641;51.018;4.474;2022-10-17T06:41:43;9.35;;;5.28;;
22949;SDS011;11641;51.018;4.474;2022-10-17T06:44:14;10.15;;;5.20;;
22949;SDS011;11641;51.018;4.474;2022-10-17T06:46:40;13.13;;;4.88;;
22949;SDS011;11641;51.018;4.474;2022-10-17T06:49:08;11.35;;;5.30;;
22949;SDS011;11641;51.018;4.474;2022-10-17T06:51:35;11.07;;;4.40;;
22949;SDS011;11641;51.018;4.474;2022-10-17T06:54:03;10.90;;;4.50;;
22949;SDS011;11641;51.018;4.474;2022-10-17T06:58:57;14.23;;;5.00;;
22949;SDS011;11641;51.018;4.474;2022-10-17T07:01:23;26.88;;;7.05;;
22949;SDS011;11641;51.018;4.474;2022-10-17T07:03:49;13.65;;;5.25;;
22949;SDS011;11641;51.018;4.474;2022-10-17T07:06:20;12.23;;;5.07;;
22949;SDS011;11641;51.018;4.474;2022-10-17T07:08:48;7.60;;;5.07;;
22949;SDS011;11641;51.018;4.474;2022-10-17T07:11:15;11.00;;;4.90;;
22949;SDS011;11641;51.018;4.474;2022-10-17T07:13:45;12.13;;;5.07;;
22949;SDS011;11641;51.018;4.474;2022-10-17T07:16:14;9.95;;;5.15;;
22949;SDS011;11641;51.018;4.474;2022-10-17T07:18:40;11.43;;;5.03;;
22949;SDS011;11641;51.018;4.474;2022-10-17T07:21:06;8.95;;;4.75;;
22949;SDS011;11641;51.018;4.474;2022-10-17T07:23:35;12.32;;;5.18;;
22949;SDS011;11641;51.018;4.474;2022-10-17T07:26:03;9.35;;;4.60;;
22949;SDS011;11641;51.018;4.474;2022-10-17T07:28:39;12.00;;;5.10;;
22949;SDS011;11641;51.018;4.474;2022-10-17T07:31:07;9.68;;;5.03;;
22949;SDS011;11641;51.018;4.474;2022-10-17T07:33:34;6.43;;;4.63;;
22949;SDS011;11641;51.018;4.474;2022-10-17T07:36:02;9.80;;;4.40;;
22949;SDS011;11641;51.018;4.474;2022-10-17T07:38:29;7.93;;;4.72;;
22949;SDS011;11641;51.018;4.474;2022-10-17T07:40:55;11.00;;;4.85;;
22949;SDS011;11641;51.018;4.474;2022-10-17T07:43:25;9.32;;;4.70;;
22949;SDS011;11641;51.018;4.474;2022-10-17T07:45:51;11.13;;;4.68;;
22949;SDS011;11641;51.018;4.474;2022-10-17T07:48:20;9.07;;;4.45;;
22949;SDS011;11641;51.018;4.474;2022-10-17T07:50:49;8.45;;;4.50;;
22949;SDS011;11641;51.018;4.474;2022-10-17T07:53:15;7.07;;;3.85;;
22949;SDS011;11641;51.018;4.474;2022-10-17T07:55:41;7.65;;;3.85;;
22949;SDS011;11641;51.018;4.474;2022-10-17T07:58:08;9.57;;;4.55;;
22949;SDS011;11641;51.018;4.474;2022-10-17T08:00:35;6.53;;;3.53;;
22949;SDS011;11641;51.018;4.474;2022-10-17T08:03:01;7.10;;;3.65;;
22949;SDS011;11641;51.018;4.474;2022-10-17T08:05:33;7.72;;;3.42;;
22949;SDS011;11641;51.018;4.474;2022-10-17T08:07:59;6.50;;;3.63;;
22949;SDS011;11641;51.018;4.474;2022-10-17T08:10:24;8.35;;;3.45;;
22949;SDS011;11641;51.018;4.474;2022-10-17T08:12:55;4.60;;;3.20;;
22949;SDS011;11641;51.018;4.474;2022-10-17T08:15:22;5.85;;;3.28;;
22949;SDS011;11641;51.018;4.474;2022-10-17T08:17:51;6.85;;;3.55;;
22949;SDS011;11641;51.018;4.474;2022-10-17T08:20:19;9.55;;;3.70;;
22949;SDS011;11641;51.018;4.474;2022-10-17T08:22:51;13.63;;;4.05;;
22949;SDS011;11641;51.018;4.474;2022-10-17T08:25:20;6.38;;;3.67;;
22949;SDS011;11641;51.018;4.474;2022-10-17T08:27:47;7.90;;;3.75;;
22949;SDS011;11641;51.018;4.474;2022-10-17T08:30:12;8.48;;;3.70;;
22949;SDS011;11641;51.018;4.474;2022-10-17T08:32:39;11.85;;;4.32;;
22949;SDS011;11641;51.018;4.474;2022-10-17T08:35:05;13.13;;;4.88;;
22949;SDS011;11641;51.018;4.474;2022-10-17T08:37:31;8.32;;;4.00;;
22949;SDS011;11641;51.018;4.474;2022-10-17T08:39:57;8.02;;;3.97;;
22949;SDS011;11641;51.018;4.474;2022-10-17T08:48:13;6.10;;;3.83;;
22949;SDS011;11641;51.018;4.474;2022-10-17T08:50:46;5.80;;;3.97;;
22949;SDS011;11641;51.018;4.474;2022-10-17T08:56:25;6.90;;;4.00;;
22949;SDS011;11641;51.018;4.474;2022-10-17T08:58:57;9.60;;;4.70;;
22949;SDS011;11641;51.018;4.474;2022-10-17T09:01:40;7.22;;;4.60;;
22949;SDS011;11641;51.018;4.474;2022-10-17T09:09:49;10.05;;;5.43;;
22949;SDS011;11641;51.018;4.474;2022-10-17T09:12:45;12.65;;;5.55;;
22949;SDS011;11641;51.018;4.474;2022-10-17T09:18:30;11.45;;;4.95;;
22949;SDS011;11641;51.018;4.474;2022-10-17T09:24:15;10.93;;;5.45;;
22949;SDS011;11641;51.018;4.474;2022-10-17T09:26:45;10.52;;;5.32;;
22949;SDS011;11641;51.018;4.474;2022-10-17T09:29:16;11.57;;;5.35;;
22949;SDS011;11641;51.018;4.474;2022-10-17T09:31:50;14.45;;;5.88;;
22949;SDS011;11641;51.018;4.474;2022-10-17T09:34:21;11.57;;;6.00;;
22949;SDS011;11641;51.018;4.474;2022-10-17T09:36:50;10.07;;;6.05;;
22949;SDS011;11641;51.018;4.474;2022-10-17T09:39:21;14.95;;;6.55;;
22949;SDS011;11641;51.018;4.474;2022-10-17T09:41:56;11.15;;;6.38;;
22949;SDS011;11641;51.018;4.474;2022-10-17T09:49:37;15.85;;;7.38;;
22949;SDS011;11641;51.018;4.474;2022-10-17T09:52:08;16.85;;;6.45;;
22949;SDS011;11641;51.018;4.474;2022-10-17T09:57:15;13.57;;;7.47;;
22949;SDS011;11641;51.018;4.474;2022-10-17T09:59:58;14.70;;;7.47;;
22949;SDS011;11641;51.018;4.474;2022-10-17T10:02:27;13.10;;;7.50;;
22949;SDS011;11641;51.018;4.474;2022-10-17T10:05:04;15.68;;;7.15;;
22949;SDS011;11641;51.018;4.474;2022-10-17T10:07:40;13.37;;;6.80;;
22949;SDS011;11641;51.018;4.474;2022-10-17T10:10:24;14.00;;;7.00;;
22949;SDS011;11641;51.018;4.474;2022-10-17T10:15:40;12.60;;;7.40;;
22949;SDS011;11641;51.018;4.474;2022-10-17T10:23:42;13.57;;;6.90;;
22949;SDS011;11641;51.018;4.474;2022-10-17T10:28:52;13.38;;;7.05;;
22949;SDS011;11641;51.018;4.474;2022-10-17T10:31:25;16.45;;;7.10;;
22949;SDS011;11641;51.018;4.474;2022-10-17T10:34:18;13.65;;;6.53;;
22949;SDS011;11641;51.018;4.474;2022-10-17T10:36:56;9.40;;;6.55;;
22949;SDS011;11641;51.018;4.474;2022-10-17T10:39:39;15.77;;;6.95;;
22949;SDS011;11641;51.018;4.474;2022-10-17T10:42:51;11.53;;;6.63;;
22949;SDS011;11641;51.018;4.474;2022-10-17T10:45:22;9.57;;;5.63;;
22949;SDS011;11641;51.018;4.474;2022-10-17T10:48:18;12.80;;;6.10;;
22949;SDS011;11641;51.018;4.474;2022-10-17T10:50:48;8.93;;;5.80;;
22949;SDS011;11641;51.018;4.474;2022-10-17T10:55:59;13.95;;;6.13;;
22949;SDS011;11641;51.018;4.474;2022-10-17T11:01:22;11.48;;;5.78;;
22949;SDS011;11641;51.018;4.474;2022-10-17T11:03:55;11.07;;;5.53;;
22949;SDS011;11641;51.018;4.474;2022-10-17T11:06:23;10.60;;;5.43;;
22949;SDS011;11641;51.018;4.474;2022-10-17T11:09:00;12.55;;;5.70;;
22949;SDS011;11641;51.018;4.474;2022-10-17T11:11:47;12.05;;;5.60;;
22949;SDS011;11641;51.018;4.474;2022-10-17T11:14:41;14.32;;;6.25;;
22949;SDS011;11641;51.018;4.474;2022-10-17T11:20:08;9.50;;;5.28;;
22949;SDS011;11641;51.018;4.474;2022-10-17T11:22:37;15.85;;;4.85;;
22949;SDS011;11641;51.018;4.474;2022-10-17T11:25:05;12.20;;;5.05;;
22949;SDS011;11641;51.018;4.474;2022-10-17T11:27:43;8.95;;;5.00;;
22949;SDS011;11641;51.018;4.474;2022-10-17T11:30:13;8.32;;;4.60;;
22949;SDS011;11641;51.018;4.474;2022-10-17T11:32:42;12.32;;;5.22;;
22949;SDS011;11641;51.018;4.474;2022-10-17T11:35:25;8.63;;;5.10;;
22949;SDS011;11641;51.018;4.474;2022-10-17T11:40:36;8.68;;;5.28;;
22949;SDS011;11641;51.018;4.474;2022-10-17T11:43:12;9.70;;;4.72;;
22949;SDS011;11641;51.018;4.474;2022-10-17T11:45:45;10.85;;;5.40;;
22949;SDS011;11641;51.018;4.474;2022-10-17T11:48:16;11.05;;;5.63;;
22949;SDS011;11641;51.018;4.474;2022-10-17T11:50:48;13.18;;;5.50;;
22949;SDS011;11641;51.018;4.474;2022-10-17T11:53:23;9.73;;;5.28;;
22949;SDS011;11641;51.018;4.474;2022-10-17T11:55:51;10.45;;;6.38;;
22949;SDS011;11641;51.018;4.474;2022-10-17T12:06:49;14.60;;;6.45;;
22949;SDS011;11641;51.018;4.474;2022-10-17T12:12:29;9.43;;;5.50;;
22949;SDS011;11641;51.018;4.474;2022-10-17T12:17:38;8.05;;;4.88;;
22949;SDS011;11641;51.018;4.474;2022-10-17T12:27:47;7.18;;;4.60;;
22949;SDS011;11641;51.018;4.474;2022-10-17T12:30:16;11.25;;;5.53;;
22949;SDS011;11641;51.018;4.474;2022-10-17T12:32:53;9.70;;;5.05;;
22949;SDS011;11641;51.018;4.474;2022-10-17T12:35:30;12.23;;;5.30;;
22949;SDS011;11641;51.018;4.474;2022-10-17T12:38:02;8.50;;;4.70;;
22949;SDS011;11641;51.018;4.474;2022-10-17T12:45:47;12.40;;;4.78;;
22949;SDS011;11641;51.018;4.474;2022-10-17T12:51:11;10.88;;;4.80;;
22949;SDS011;11641;51.018;4.474;2022-10-17T12:56:14;10.27;;;5.22;;
22949;SDS011;11641;51.018;4.474;2022-10-17T12:58:48;6.85;;;5.38;;
22949;SDS011;11641;51.018;4.474;2022-10-17T13:01:49;9.70;;;5.07;;
22949;SDS011;11641;51.018;4.474;2022-10-17T13:04:11;9.20;;;5.28;;
22949;SDS011;11641;51.018;4.474;2022-10-17T13:06:45;9.98;;;5.00;;
22949;SDS011;11641;51.018;4.474;2022-10-17T13:09:27;12.65;;;5.28;;
22949;SDS011;11641;51.018;4.474;2022-10-17T13:11:55;9.55;;;4.88;;
22949;SDS011;11641;51.018;4.474;2022-10-17T13:14:23;8.18;;;5.75;;
22949;SDS011;11641;51.018;4.474;2022-10-17T13:16:54;14.05;;;5.47;;
22949;SDS011;11641;51.018;4.474;2022-10-17T13:19:22;11.27;;;5.25;;
22949;SDS011;11641;51.018;4.474;2022-10-17T13:24:43;8.18;;;4.82;;
22949;SDS011;11641;51.018;4.474;2022-10-17T13:29:55;11.35;;;5.85;;
22949;SDS011;11641;51.018;4.474;2022-10-17T13:32:36;11.38;;;5.43;;
22949;SDS011;11641;51.018;4.474;2022-10-17T13:35:13;15.27;;;5.28;;
22949;SDS011;11641;51.018;4.474;2022-10-17T13:37:44;10.57;;;4.47;;
22949;SDS011;11641;51.018;4.474;2022-10-17T13:40:17;9.13;;;4.60;;
22949;SDS011;11641;51.018;4.474;2022-10-17T13:42:45;10.20;;;4.28;;
22949;SDS011;11641;51.018;4.474;2022-10-17T13:45:26;10.98;;;4.93;;
22949;SDS011;11641;51.018;4.474;2022-10-17T13:47:54;7.97;;;4.38;;
22949;SDS011;11641;51.018;4.474;2022-10-17T13:50:28;12.45;;;4.53;;
22949;SDS011;11641;51.018;4.474;2022-10-17T13:53:23;10.35;;;4.63;;
22949;SDS011;11641;51.018;4.474;2022-10-17T13:56:15;7.63;;;3.72;;
22949;SDS011;11641;51.018;4.474;2022-10-17T13:58:49;10.77;;;4.57;;
22949;SDS011;11641;51.018;4.474;2022-10-17T14:01:17;7.43;;;3.67;;
22949;SDS011;11641;51.018;4.474;2022-10-17T14:03:44;13.07;;;4.32;;
22949;SDS011;11641;51.018;4.474;2022-10-17T14:08:55;8.02;;;3.78;;
22949;SDS011;11641;51.018;4.474;2022-10-17T14:11:34;9.93;;;4.20;;
22949;SDS011;11641;51.018;4.474;2022-10-17T14:14:03;8.15;;;3.75;;
22949;SDS011;11641;51.018;4.474;2022-10-17T14:16:38;10.55;;;4.10;;
22949;SDS011;11641;51.018;4.474;2022-10-17T14:24:51;7.65;;;3.90;;
22949;SDS011;11641;51.018;4.474;2022-10-17T14:27:32;6.75;;;3.67;;
22949;SDS011;11641;51.018;4.474;2022-10-17T14:30:01;7.55;;;3.78;;
22949;SDS011;11641;51.018;4.474;2022-10-17T14:32:33;14.63;;;3.75;;
22949;SDS011;11641;51.018;4.474;2022-10-17T14:35:01;10.18;;;3.40;;
22949;SDS011;11641;51.018;4.474;2022-10-17T14:37:38;5.53;;;3.28;;
22949;SDS011;11641;51.018;4.474;2022-10-17T14:40:22;6.72;;;3.58;;
22949;SDS011;11641;51.018;4.474;2022-10-17T14:42:49;7.22;;;3.00;;
22949;SDS011;11641;51.018;4.474;2022-10-17T14:47:51;5.53;;;2.83;;
22949;SDS011;11641;51.018;4.474;2022-10-17T14:50:23;11.32;;;3.53;;
22949;SDS011;11641;51.018;4.474;2022-10-17T14:53:16;9.05;;;3.85;;
22949;SDS011;11641;51.018;4.474;2022-10-17T14:55:54;5.88;;;2.92;;
22949;SDS011;11641;51.018;4.474;2022-10-17T14:58:26;5.60;;;3.15;;
22949;SDS011;11641;51.018;4.474;2022-10-17T15:00:56;5.25;;;3.10;;
22949;SDS011;11641;51.018;4.474;2022-10-17T15:03:23;7.03;;;2.85;;
22949;SDS011;11641;51.018;4.474;2022-10-17T15:05:54;7.57;;;2.80;;
22949;SDS011;11641;51.018;4.474;2022-10-17T15:08:21;9.48;;;3.20;;
22949;SDS011;11641;51.018;4.474;2022-10-17T15:10:48;7.57;;;2.90;;
22949;SDS011;11641;51.018;4.474;2022-10-17T15:13:18;8.30;;;3.08;;
22949;SDS011;11641;51.018;4.474;2022-10-17T15:15:44;8.13;;;2.88;;
22949;SDS011;11641;51.018;4.474;2022-10-17T15:18:15;6.78;;;2.92;;
22949;SDS011;11641;51.018;4.474;2022-10-17T15:20:43;4.85;;;2.63;;
22949;SDS011;11641;51.018;4.474;2022-10-17T15:23:08;5.07;;;2.60;;
22949;SDS011;11641;51.018;4.474;2022-10-17T15:25:36;8.10;;;2.70;;
22949;SDS011;11641;51.018;4.474;2022-10-17T15:28:06;6.93;;;2.38;;
22949;SDS011;11641;51.018;4.474;2022-10-17T15:30:34;4.10;;;2.97;;
22949;SDS011;11641;51.018;4.474;2022-10-17T15:33:00;5.53;;;2.30;;
22949;SDS011;11641;51.018;4.474;2022-10-17T15:35:26;5.25;;;2.40;;
22949;SDS011;11641;51.018;4.474;2022-10-17T15:37:53;4.60;;;2.42;;
22949;SDS011;11641;51.018;4.474;2022-10-17T15:42:46;4.18;;;2.60;;
22949;SDS011;11641;51.018;4.474;2022-10-17T15:45:12;5.82;;;2.75;;
22949;SDS011;11641;51.018;4.474;2022-10-17T15:47:40;7.57;;;3.20;;
22949;SDS011;11641;51.018;4.474;2022-10-17T15:50:11;8.82;;;3.28;;
22949;SDS011;11641;51.018;4.474;2022-10-17T15:52:39;9.63;;;2.83;;
22949;SDS011;11641;51.018;4.474;2022-10-17T15:55:08;4.47;;;2.80;;
22949;SDS011;11641;51.018;4.474;2022-10-17T15:57:37;7.18;;;3.00;;
22949;SDS011;11641;51.018;4.474;2022-10-17T16:00:06;7.07;;;3.05;;
22949;SDS011;11641;51.018;4.474;2022-10-17T16:02:39;10.02;;;3.20;;
22949;SDS011;11641;51.018;4.474;2022-10-17T16:05:09;7.18;;;3.15;;
22949;SDS011;11641;51.018;4.474;2022-10-17T16:07:42;5.70;;;3.40;;
22949;SDS011;11641;51.018;4.474;2022-10-17T16:10:11;7.07;;;3.22;;
22949;SDS011;11641;51.018;4.474;2022-10-17T16:12:40;10.57;;;3.47;;
22949;SDS011;11641;51.018;4.474;2022-10-17T16:15:11;4.90;;;3.38;;
22949;SDS011;11641;51.018;4.474;2022-10-17T16:17:48;6.60;;;3.72;;
22949;SDS011;11641;51.018;4.474;2022-10-17T16:20:19;5.63;;;3.17;;
22949;SDS011;11641;51.018;4.474;2022-10-17T16:22:49;8.43;;;3.10;;
22949;SDS011;11641;51.018;4.474;2022-10-17T16:25:19;7.65;;;3.40;;
22949;SDS011;11641;51.018;4.474;2022-10-17T16:27:47;12.75;;;3.90;;
22949;SDS011;11641;51.018;4.474;2022-10-17T16:30:15;7.25;;;3.63;;
22949;SDS011;11641;51.018;4.474;2022-10-17T16:32:44;6.20;;;3.03;;
22949;SDS011;11641;51.018;4.474;2022-10-17T16:35:15;7.60;;;3.63;;
22949;SDS011;11641;51.018;4.474;2022-10-17T16:37:43;7.35;;;4.75;;
22949;SDS011;11641;51.018;4.474;2022-10-17T16:40:11;7.93;;;4.78;;
22949;SDS011;11641;51.018;4.474;2022-10-17T16:42:38;10.43;;;5.78;;
22949;SDS011;11641;51.018;4.474;2022-10-17T16:45:03;10.02;;;4.63;;
22949;SDS011;11641;51.018;4.474;2022-10-17T16:47:32;9.30;;;5.40;;
22949;SDS011;11641;51.018;4.474;2022-10-17T16:49:57;9.43;;;5.13;;
22949;SDS011;11641;51.018;4.474;2022-10-17T16:52:23;7.20;;;4.72;;
22949;SDS011;11641;51.018;4.474;2022-10-17T16:54:50;10.07;;;5.05;;
22949;SDS011;11641;51.018;4.474;2022-10-17T16:57:15;10.98;;;4.60;;
22949;SDS011;11641;51.018;4.474;2022-10-17T16:59:41;13.60;;;4.68;;
22949;SDS011;11641;51.018;4.474;2022-10-17T17:02:08;12.98;;;5.05;;
22949;SDS011;11641;51.018;4.474;2022-10-17T17:04:38;10.65;;;5.10;;
22949;SDS011;11641;51.018;4.474;2022-10-17T17:07:06;9.95;;;4.72;;
22949;SDS011;11641;51.018;4.474;2022-10-17T17:09:31;9.55;;;5.00;;
22949;SDS011;11641;51.018;4.474;2022-10-17T17:11:57;11.57;;;4.80;;
22949;SDS011;11641;51.018;4.474;2022-10-17T17:14:24;11.48;;;4.57;;
22949;SDS011;11641;51.018;4.474;2022-10-17T17:16:55;9.35;;;5.28;;
22949;SDS011;11641;51.018;4.474;2022-10-17T17:19:22;10.15;;;5.28;;
22949;SDS011;11641;51.018;4.474;2022-10-17T17:21:48;9.73;;;4.82;;
22949;SDS011;11641;51.018;4.474;2022-10-17T17:24:17;10.57;;;5.07;;